Time;durP1;ratioP1;P1;durP2;ratioP2;P2;SDS_P1;SDS_P2;PMS_P1;PMS_P2;Temp;Humidity;BMP_temperature;BMP_pressure;BME280_temperature;BME280_humidity;BME280_pressure;Samples;Min_cycle;Max_cycle;Signal;HPM_P1;HPM_P2
2023/05/24 00:00:45;;;;;;;8.13;2.45;;;;;;;12.64;100.00;101627.31;4991811;28;20062;-65
2023/05/24 00:03:14;;;;;;;7.53;2.30;;;;;;;12.70;100.00;101620.09;4978455;28;20053;-67
2023/05/24 00:05:41;;;;;;;6.28;1.70;;;;;;;12.73;100.00;101613.91;4991051;28;20163;-66
2023/05/24 00:08:08;;;;;;;7.20;2.15;;;;;;;12.74;100.00;101618.22;4991071;28;20108;-67
2023/05/24 00:10:35;;;;;;;7.07;2.08;;;;;;;12.77;100.00;101626.00;4993760;28;20125;-67
2023/05/24 00:13:03;;;;;;;6.43;2.00;;;;;;;12.75;100.00;101622.59;4974514;28;20050;-66
2023/05/24 00:15:32;;;;;;;6.25;2.10;;;;;;;12.76;100.00;101619.03;4974844;28;20042;-67
2023/05/24 00:17:59;;;;;;;9.02;2.30;;;;;;;12.74;100.00;101610.34;4972867;28;20054;-67
2023/05/24 00:20:26;;;;;;;6.95;2.00;;;;;;;12.65;100.00;101602.75;4990352;28;20112;-67
2023/05/24 00:22:53;;;;;;;5.65;1.60;;;;;;;12.74;100.00;101618.22;4990655;28;20046;-66
2023/05/24 00:25:20;;;;;;;4.45;1.60;;;;;;;12.70;100.00;101616.63;4989799;28;20522;-66
2023/05/24 00:27:47;;;;;;;4.68;1.60;;;;;;;12.40;100.00;101572.03;4990043;28;20382;-65
2023/05/24 00:30:15;;;;;;;7.15;1.95;;;;;;;12.56;100.00;101613.56;5002045;28;20064;-66
2023/05/24 00:32:43;;;;;;;4.18;1.65;;;;;;;12.53;100.00;101620.63;4972378;28;20141;-66
2023/05/24 00:35:11;;;;;;;6.57;1.85;;;;;;;12.57;100.00;101617.91;4972297;28;20081;-65
2023/05/24 00:37:43;;;;;;;6.60;1.85;;;;;;;12.54;100.00;101617.09;4972573;28;20194;-66
2023/05/24 00:40:12;;;;;;;5.60;1.95;;;;;;;12.47;100.00;101609.47;4993605;28;20424;-66
2023/05/24 00:42:40;;;;;;;7.18;2.03;;;;;;;12.22;100.00;101604.13;4975424;28;20480;-66
2023/05/24 00:45:08;;;;;;;6.03;1.77;;;;;;;11.98;100.00;101608.34;4989909;28;20070;-65
2023/05/24 00:47:35;;;;;;;6.10;1.70;;;;;;;11.88;100.00;101597.19;4990735;28;20459;-66
2023/05/24 00:50:03;;;;;;;8.10;1.60;;;;;;;12.00;100.00;101596.03;4990705;28;20149;-65
2023/05/24 00:52:31;;;;;;;5.88;2.05;;;;;;;12.11;100.00;101599.16;4990572;28;20126;-65
2023/05/24 00:54:58;;;;;;;8.27;1.83;;;;;;;11.90;100.00;101588.44;4970802;28;20492;-65
2023/05/24 00:57:26;;;;;;;6.60;1.60;;;;;;;11.88;100.00;101584.06;4989829;28;20046;-66
2023/05/24 00:59:54;;;;;;;3.80;1.60;;;;;;;11.87;100.00;101592.88;4990689;28;20046;-66
2023/05/24 01:02:24;;;;;;;5.18;1.75;;;;;;;11.57;100.00;101592.84;4974477;28;20054;-66
2023/05/24 01:04:51;;;;;;;6.93;2.50;;;;;;;11.17;100.00;101586.06;4988452;28;20068;-66
2023/05/24 01:07:58;;;;;;;5.63;1.83;;;;;;;11.49;100.00;101587.81;4972261;28;20074;-66
2023/05/24 01:10:45;;;;;;;6.40;1.83;;;;;;;11.63;100.00;101592.66;4990004;28;20073;-65
2023/05/24 01:13:48;;;;;;;6.45;1.90;;;;;;;11.72;100.00;101589.78;4991338;28;20908;-66
2023/05/24 01:16:26;;;;;;;7.82;2.40;;;;;;;11.64;100.00;101585.66;4971574;28;20057;-66
2023/05/24 01:18:59;;;;;;;6.28;2.17;;;;;;;11.44;100.00;101579.22;4990659;28;20043;-67
2023/05/24 01:21:37;;;;;;;5.97;1.90;;;;;;;11.34;100.00;101583.84;4991650;28;20490;-67
2023/05/24 01:24:34;;;;;;;7.57;2.42;;;;;;;11.49;100.00;101590.44;4989840;28;20085;-67
2023/05/24 01:27:11;;;;;;;12.88;2.40;;;;;;;11.34;100.00;101583.84;4986863;28;20049;-67
2023/05/24 01:29:38;;;;;;;7.88;2.30;;;;;;;11.18;100.00;101569.44;4990868;28;20058;-67
2023/05/24 01:32:06;;;;;;;9.25;2.45;;;;;;;11.04;100.00;101588.16;4990636;28;20058;-66
2023/05/24 01:34:32;;;;;;;7.22;2.00;;;;;;;10.85;100.00;101598.22;4989704;28;20056;-67
2023/05/24 01:36:59;;;;;;;5.10;1.80;;;;;;;11.00;100.00;101599.63;4989237;28;20050;-66
2023/05/24 01:39:28;;;;;;;7.32;2.03;;;;;;;11.04;100.00;101588.16;4990318;28;20412;-66
2023/05/24 01:42:24;;;;;;;6.38;2.10;;;;;;;11.19;100.00;101606.09;4972738;28;20150;-67
2023/05/24 01:45:09;;;;;;;5.53;1.85;;;;;;;11.08;100.00;101602.88;4984224;28;20046;-67
2023/05/24 01:47:54;;;;;;;7.30;1.80;;;;;;;11.01;100.00;101593.47;4989326;28;20076;-66
2023/05/24 01:50:30;;;;;;;7.32;2.25;;;;;;;10.96;100.00;101590.97;4994184;28;20054;-66
2023/05/24 01:53:05;;;;;;;9.68;2.10;;;;;;;10.93;100.00;101598.06;4993838;28;20077;-67
2023/05/24 01:55:33;;;;;;;5.95;1.90;;;;;;;10.77;100.00;101597.56;4993501;28;20042;-66
2023/05/24 01:58:03;;;;;;;5.50;1.73;;;;;;;11.00;100.00;101586.50;4993816;28;20057;-66
2023/05/24 02:00:31;;;;;;;7.25;1.83;;;;;;;10.91;100.00;101595.47;4993900;28;20140;-66
2023/05/24 02:02:58;;;;;;;6.35;2.20;;;;;;;10.63;100.00;101590.03;5007623;28;20054;-66
2023/05/24 02:05:25;;;;;;;8.45;2.13;;;;;;;10.71;100.00;101595.09;4994101;28;20058;-65
2023/05/24 02:07:52;;;;;;;4.38;1.55;;;;;;;10.85;100.00;101597.38;4993175;28;20050;-66
2023/05/24 02:10:19;;;;;;;6.95;1.90;;;;;;;10.95;100.00;101602.34;4999223;28;20050;-68
2023/05/24 02:12:46;;;;;;;5.57;2.00;;;;;;;10.99;100.00;101603.13;4998899;28;20061;-67
2023/05/24 02:15:13;;;;;;;4.72;1.67;;;;;;;10.89;100.00;101597.28;4992498;28;20058;-67
2023/05/24 02:17:42;;;;;;;3.53;1.40;;;;;;;10.97;100.00;101607.53;4993652;28;20058;-66
2023/05/24 02:20:09;;;;;;;5.20;1.63;;;;;;;10.82;100.00;101608.81;4993997;28;20050;-66
2023/05/24 02:22:37;;;;;;;4.88;1.75;;;;;;;10.82;100.00;101614.91;4997324;28;20487;-67
2023/05/24 02:25:06;;;;;;;4.15;1.60;;;;;;;10.71;100.00;101619.53;4980255;28;20065;-67
2023/05/24 02:27:35;;;;;;;5.13;1.67;;;;;;;10.52;100.00;101613.88;4989832;28;20050;-67
2023/05/24 02:30:05;;;;;;;6.47;2.00;;;;;;;10.32;100.00;101614.31;4974946;28;20145;-65
2023/05/24 02:32:33;;;;;;;4.38;1.75;;;;;;;10.34;100.00;101611.66;4992528;28;20145;-66
2023/05/24 02:35:00;;;;;;;5.22;1.70;;;;;;;10.49;100.00;101615.69;4992902;28;20061;-65
2023/05/24 02:37:27;;;;;;;5.68;2.00;;;;;;;10.46;100.00;101621.84;4993178;28;20906;-66
2023/05/24 02:39:55;;;;;;;5.22;1.52;;;;;;;10.59;100.00;101611.97;4993136;28;20050;-66
2023/05/24 02:42:22;;;;;;;4.88;1.80;;;;;;;10.56;100.00;101612.91;4975415;28;20050;-66
2023/05/24 02:44:51;;;;;;;4.47;1.60;;;;;;;10.56;100.00;101617.28;4998071;28;20054;-66
2023/05/24 02:47:18;;;;;;;5.45;1.67;;;;;;;10.23;100.00;101615.38;4975932;28;20057;-67
2023/05/24 02:49:45;;;;;;;5.45;1.63;;;;;;;10.40;100.00;101622.00;4993792;28;20249;-66
2023/05/24 02:52:13;;;;;;;4.28;1.40;;;;;;;10.51;100.00;101619.13;4993392;28;20050;-66
2023/05/24 02:54:40;;;;;;;3.97;1.38;;;;;;;10.45;100.00;101613.16;4992279;28;20050;-66
2023/05/24 02:57:06;;;;;;;5.18;1.45;;;;;;;10.53;100.00;101620.81;4992948;28;20229;-66
2023/05/24 02:59:35;;;;;;;4.72;1.70;;;;;;;10.28;100.00;101628.34;4990825;28;20054;-66
2023/05/24 03:02:02;;;;;;;4.65;1.55;;;;;;;10.33;100.00;101636.97;4992992;28;20510;-65
2023/05/24 03:04:29;;;;;;;5.15;1.60;;;;;;;10.22;100.00;101615.41;4992154;28;20046;-65
2023/05/24 03:06:57;;;;;;;5.43;1.67;;;;;;;10.02;100.00;101627.16;4992541;28;20065;-66
2023/05/24 03:09:24;;;;;;;4.80;1.90;;;;;;;9.90;100.00;101630.03;4992464;28;20092;-66
2023/05/24 03:11:53;;;;;;;5.47;1.83;;;;;;;9.84;100.00;101635.38;4993070;28;20054;-66
2023/05/24 03:14:22;;;;;;;7.97;1.80;;;;;;;9.78;100.00;101638.13;4988948;28;20092;-65
2023/05/24 03:16:50;;;;;;;5.57;1.75;;;;;;;9.78;100.00;101628.50;4992411;28;20057;-66
2023/05/24 03:19:17;;;;;;;4.18;1.35;;;;;;;9.90;100.00;101627.41;5001561;28;20053;-65
2023/05/24 03:21:44;;;;;;;4.38;1.73;;;;;;;9.73;100.00;101630.34;4992670;28;20050;-66
2023/05/24 03:24:13;;;;;;;5.90;1.77;;;;;;;9.96;100.00;101644.72;4990857;28;20047;-66
2023/05/24 03:26:41;;;;;;;6.05;2.15;;;;;;;9.91;100.00;101649.19;4990796;28;20046;-67
2023/05/24 03:29:08;;;;;;;5.85;1.33;;;;;;;9.87;100.00;101641.41;4991972;28;20432;-66
2023/05/24 03:31:35;;;;;;;4.80;1.65;;;;;;;10.01;100.00;101648.13;4992513;28;20056;-66
2023/05/24 03:34:02;;;;;;;4.38;1.73;;;;;;;10.18;100.00;101652.97;4974887;28;20157;-65
2023/05/24 03:36:33;;;;;;;7.55;1.60;;;;;;;10.08;100.00;101657.56;4980062;28;20081;-65
2023/05/24 03:39:02;;;;;;;5.47;1.88;;;;;;;10.05;100.00;101663.69;4991652;28;20047;-66
2023/05/24 03:41:30;;;;;;;7.40;1.90;;;;;;;10.11;100.00;101654.88;4992128;28;20086;-66
2023/05/24 03:43:57;;;;;;;4.88;1.63;;;;;;;10.12;100.00;101651.34;4992548;28;20056;-67
2023/05/24 03:46:24;;;;;;;6.05;1.90;;;;;;;9.98;100.00;101635.94;4990777;28;20081;-67
2023/05/24 03:48:52;;;;;;;10.50;2.22;;;;;;;9.91;100.00;101638.72;4966652;28;20444;-66
2023/05/24 03:51:19;;;;;;;8.18;1.73;;;;;;;9.98;100.00;101648.16;4984896;28;20098;-67
2023/05/24 03:53:47;;;;;;;7.97;2.42;;;;;;;9.89;100.00;101662.28;4991308;28;20048;-66
2023/05/24 03:56:17;;;;;;;6.47;2.00;;;;;;;9.95;100.00;101656.97;4988456;28;20469;-66
2023/05/24 03:58:45;;;;;;;6.35;1.95;;;;;;;10.13;100.00;101649.59;4974337;28;20515;-67
2023/05/24 04:01:12;;;;;;;7.38;2.05;;;;;;;10.30;100.00;101634.41;4991892;28;20065;-67
2023/05/24 04:03:58;;;;;;;7.47;2.10;;;;;;;10.43;100.00;101632.41;4992102;28;20058;-66
2023/05/24 04:06:27;;;;;;;5.68;1.90;;;;;;;10.44;100.00;101619.25;4990871;28;20054;-66
2023/05/24 04:08:56;;;;;;;7.13;1.88;;;;;;;10.55;100.00;101647.84;4989928;28;20058;-66
2023/05/24 04:11:27;;;;;;;5.40;1.67;;;;;;;10.50;100.00;101652.31;4989752;28;20125;-65
2023/05/24 04:13:56;;;;;;;5.25;2.03;;;;;;;10.50;100.00;101646.22;4989373;28;20416;-66
2023/05/24 04:16:24;;;;;;;6.20;1.67;;;;;;;10.63;100.00;101642.44;4992855;28;20601;-66
2023/05/24 04:18:54;;;;;;;5.97;1.75;;;;;;;10.69;100.00;101644.88;4994114;28;20050;-66
2023/05/24 04:21:21;;;;;;;8.20;2.00;;;;;;;10.52;100.00;101647.91;4996048;28;20145;-67
2023/05/24 04:23:49;;;;;;;7.13;1.90;;;;;;;10.50;100.00;101641.84;4968677;28;20042;-66
2023/05/24 04:26:17;;;;;;;9.77;2.20;;;;;;;10.63;100.00;101638.03;4988893;28;20051;-66
2023/05/24 04:28:45;;;;;;;8.15;2.08;;;;;;;10.72;100.00;101646.59;4998524;28;20489;-66
2023/05/24 04:31:12;;;;;;;7.45;2.47;;;;;;;10.49;100.00;101627.03;4992101;28;20089;-66
2023/05/24 04:33:39;;;;;;;8.07;2.13;;;;;;;10.68;100.00;101647.53;4991375;28;20146;-66
2023/05/24 04:36:07;;;;;;;8.20;1.88;;;;;;;10.88;100.00;101647.09;4991148;28;20057;-65
2023/05/24 04:38:35;;;;;;;11.13;3.30;;;;;;;11.07;100.00;101645.72;4990969;28;20046;-67
2023/05/24 04:41:01;;;;;;;14.23;2.92;;;;;;;11.14;100.00;101668.25;4991554;28;20054;-66
2023/05/24 04:43:28;;;;;;;9.85;2.53;;;;;;;11.44;100.00;101646.53;4991386;28;20058;-67
2023/05/24 04:45:55;;;;;;;8.50;2.63;;;;;;;12.10;100.00;101655.22;4990503;28;20096;-67
2023/05/24 04:48:24;;;;;;;9.52;2.50;;;;;;;12.08;100.00;101670.16;4986801;28;20045;-66
2023/05/24 04:50:52;;;;;;;11.70;3.13;;;;;;;11.96;100.00;101668.75;4974110;28;20140;-67
2023/05/24 04:53:20;;;;;;;12.02;2.63;;;;;;;11.95;100.00;101664.38;4991128;28;20046;-66
2023/05/24 04:55:48;;;;;;;9.25;2.58;;;;;;;11.88;100.00;101671.56;4990745;28;20042;-66
2023/05/24 04:58:16;;;;;;;8.60;2.65;;;;;;;11.74;100.00;101637.84;4957554;28;20042;-67
2023/05/24 05:00:43;;;;;;;8.95;2.75;;;;;;;11.92;100.00;101680.25;4990848;28;20072;-65
2023/05/24 05:03:10;;;;;;;11.30;2.83;;;;;;;11.75;100.00;101692.00;4991152;28;20137;-66
2023/05/24 05:05:38;;;;;;;13.07;2.83;;;;;;;11.83;100.00;101696.19;4990369;28;20054;-66
2023/05/24 05:08:05;;;;;;;9.02;2.45;;;;;;;11.91;100.00;101689.00;4969157;28;20532;-66
2023/05/24 05:10:33;;;;;;;12.35;2.90;;;;;;;11.95;100.00;101699.38;4995338;28;20062;-67
2023/05/24 05:13:01;;;;;;;7.80;2.45;;;;;;;12.06;100.00;101701.69;4972665;28;20046;-66
2023/05/24 05:15:28;;;;;;;14.60;3.42;;;;;;;11.83;100.00;101694.44;4991645;28;20120;-67
2023/05/24 05:17:56;;;;;;;12.20;3.10;;;;;;;11.65;100.00;101703.69;4984264;28;20069;-67
2023/05/24 05:20:24;;;;;;;12.07;2.75;;;;;;;11.86;100.00;101696.97;4982153;28;20058;-67
2023/05/24 05:22:51;;;;;;;14.20;3.00;;;;;;;11.70;100.00;101706.16;4983849;28;20146;-66
2023/05/24 05:25:18;;;;;;;10.50;3.08;;;;;;;11.72;100.00;101706.97;4982391;28;20071;-67
2023/05/24 05:27:45;;;;;;;11.98;2.80;;;;;;;11.46;100.00;101697.19;4987616;28;20052;-67
2023/05/24 05:30:13;;;;;;;7.68;2.65;;;;;;;11.33;100.00;101691.38;4990882;28;20046;-67
2023/05/24 05:32:40;;;;;;;8.52;2.17;;;;;;;11.48;100.00;101714.59;4972966;28;20080;-67
2023/05/24 05:35:08;;;;;;;7.50;2.50;;;;;;;11.38;100.00;101703.50;4989820;28;20077;-66
2023/05/24 05:37:35;;;;;;;7.13;2.53;;;;;;;11.69;100.00;101697.44;4971608;28;20060;-67
2023/05/24 05:40:03;;;;;;;7.43;2.50;;;;;;;11.88;100.00;101700.44;4989532;28;20056;-66
2023/05/24 05:42:30;;;;;;;6.30;2.33;;;;;;;11.73;100.00;101706.94;4968778;28;20050;-66
2023/05/24 05:44:59;;;;;;;7.57;2.35;;;;;;;11.84;100.00;101721.53;4984666;28;20573;-67
2023/05/24 05:47:28;;;;;;;6.10;2.25;;;;;;;12.06;100.00;101727.94;4969845;28;20058;-66
2023/05/24 05:49:55;;;;;;;8.75;2.58;;;;;;;11.96;100.00;101727.34;4972066;28;20093;-67
2023/05/24 05:52:22;;;;;;;7.38;2.50;;;;;;;11.96;100.00;101718.59;4987304;28;20069;-66
2023/05/24 05:54:49;;;;;;;8.23;2.28;;;;;;;12.12;100.00;101725.13;4989020;28;20081;-66
2023/05/24 05:57:22;;;;;;;6.43;2.00;;;;;;;12.09;100.00;101722.63;4989674;28;20053;-66
2023/05/24 05:59:49;;;;;;;7.27;2.27;;;;;;;12.33;100.00;101707.06;4981324;28;20495;-67
2023/05/24 06:02:21;;;;;;;6.80;2.10;;;;;;;12.41;100.00;101696.31;4987959;28;20646;-67
2023/05/24 06:04:51;;;;;;;8.55;2.40;;;;;;;12.42;100.00;101722.53;4986979;28;20042;-67
2023/05/24 06:07:21;;;;;;;6.00;1.92;;;;;;;12.68;100.00;101719.13;4969603;28;20062;-67
2023/05/24 06:09:48;;;;;;;8.73;2.30;;;;;;;12.99;100.00;101723.41;4986833;28;20042;-67
2023/05/24 06:12:15;;;;;;;8.38;2.00;;;;;;;13.47;100.00;101720.13;4988558;28;20057;-66
2023/05/24 06:14:43;;;;;;;7.10;2.20;;;;;;;13.39;100.00;101718.66;4988668;28;20046;-67
2023/05/24 06:17:12;;;;;;;6.75;1.92;;;;;;;13.04;100.00;101700.47;4974857;28;20074;-67
2023/05/24 06:19:39;;;;;;;6.63;2.17;;;;;;;12.86;100.00;101701.94;4988975;28;20133;-66
2023/05/24 06:22:05;;;;;;;8.55;2.72;;;;;;;13.09;100.00;101697.69;4989767;28;20427;-67
2023/05/24 06:24:33;;;;;;;11.75;2.55;;;;;;;13.37;100.00;101708.19;4988526;28;20133;-66
2023/05/24 06:27:00;;;;;;;6.07;2.05;;;;;;;13.94;100.00;101695.69;4989912;28;20496;-67
2023/05/24 06:29:30;;;;;;;9.82;2.78;;;;;;;14.50;100.00;101691.84;4989106;28;20049;-67
2023/05/24 06:32:02;;;;;;;7.00;2.03;;;;;;;14.24;100.00;101708.63;4971375;28;20054;-66
2023/05/24 06:34:34;;;;;;;6.63;2.20;;;;;;;14.16;100.00;101708.91;4970305;28;20416;-66
2023/05/24 06:37:01;;;;;;;6.97;2.22;;;;;;;13.91;100.00;101701.03;4974096;28;20050;-66
2023/05/24 06:39:29;;;;;;;10.82;2.88;;;;;;;13.88;100.00;101708.19;4991165;28;20707;-67
2023/05/24 06:41:57;;;;;;;9.32;2.85;;;;;;;13.88;100.00;101703.78;4992507;28;20550;-67
2023/05/24 06:44:32;;;;;;;9.07;2.50;;;;;;;14.41;100.00;101715.88;4993940;28;20405;-67
2023/05/24 06:47:00;;;;;;;9.98;2.80;;;;;;;14.89;100.00;101709.66;4992285;28;20069;-66
2023/05/24 06:49:28;;;;;;;12.93;3.35;;;;;;;15.80;100.00;101694.47;4992177;28;20077;-66
2023/05/24 06:51:56;;;;;;;11.63;2.30;;;;;;;16.92;100.00;101706.91;4990850;28;20161;-67
2023/05/24 06:54:24;;;;;;;9.38;2.72;;;;;;;17.47;100.00;101714.75;4974527;28;20428;-66
2023/05/24 06:56:52;;;;;;;9.45;2.85;;;;;;;16.78;100.00;101724.28;4976010;28;20050;-67
2023/05/24 06:59:22;;;;;;;12.40;3.28;;;;;;;16.27;100.00;101725.78;4992640;28;20496;-67
2023/05/24 07:01:56;;;;;;;13.93;3.20;;;;;;;15.93;100.00;101717.59;4962454;28;20457;-68
2023/05/24 07:04:27;;;;;;;11.82;3.13;;;;;;;15.79;100.00;101724.41;4994331;28;20068;-66
2023/05/24 07:06:56;;;;;;;10.93;2.67;;;;;;;16.30;100.00;101726.50;4996156;28;20149;-67
2023/05/24 07:09:28;;;;;;;11.90;2.70;;;;;;;16.87;100.00;101720.34;4996719;28;20047;-67
2023/05/24 07:11:59;;;;;;;12.55;2.85;;;;;;;17.38;100.00;101723.16;4971635;28;20070;-68
2023/05/24 07:14:31;;;;;;;12.15;2.50;;;;;;;17.89;100.00;101739.97;4972635;28;20528;-67
2023/05/24 07:17:00;;;;;;;9.18;2.10;;;;;;;18.39;100.00;101744.34;4976084;28;20089;-68
2023/05/24 07:19:33;;;;;;;14.60;2.95;;;;;;;18.13;100.00;101745.78;4977673;28;20053;-67
2023/05/24 07:22:02;;;;;;;10.10;3.13;;;;;;;18.59;100.00;101750.34;4975990;28;20547;-66
2023/05/24 07:24:31;;;;;;;12.25;2.70;;;;;;;18.59;100.00;101747.69;4974707;28;20854;-67
2023/05/24 07:27:00;;;;;;;10.40;2.53;;;;;;;19.03;100.00;101754.16;4974312;28;20157;-67
2023/05/24 07:29:28;;;;;;;10.10;2.50;;;;;;;18.80;100.00;101745.66;4975373;28;20400;-66
2023/05/24 07:31:57;;;;;;;10.57;2.90;;;;;;;18.82;100.00;101753.56;4991055;28;20125;-67
2023/05/24 07:34:26;;;;;;;18.20;4.00;;;;;;;18.92;100.00;101757.41;4991596;28;20595;-67
2023/05/24 07:36:57;;;;;;;15.38;3.65;;;;;;;19.36;100.00;101754.00;4992770;28;20061;-67
2023/05/24 07:39:29;;;;;;;12.20;3.25;;;;;;;19.49;100.00;101762.09;4993355;28;20062;-67
2023/05/24 07:41:56;;;;;;;9.68;2.70;;;;;;;19.45;95.38;101758.75;4991090;28;20098;-67
2023/05/24 07:44:24;;;;;;;11.13;2.63;;;;;;;19.28;100.00;101766.84;4991376;28;20104;-67
2023/05/24 07:46:51;;;;;;;10.60;2.92;;;;;;;19.71;100.00;101767.84;5005470;28;20081;-67
2023/05/24 07:49:21;;;;;;;10.18;2.78;;;;;;;19.22;100.00;101760.09;5002666;28;20125;-68
2023/05/24 07:51:49;;;;;;;13.98;3.50;;;;;;;19.65;96.87;101768.19;4991906;28;20084;-67
2023/05/24 07:54:17;;;;;;;12.13;3.28;;;;;;;19.02;100.00;101768.38;4972959;28;20061;-68
2023/05/24 07:56:44;;;;;;;9.77;2.63;;;;;;;19.35;100.00;101768.22;4992118;28;20137;-68
2023/05/24 07:59:12;;;;;;;15.25;2.80;;;;;;;19.15;100.00;101772.88;4993594;28;20058;-68
2023/05/24 08:01:41;;;;;;;9.55;2.72;;;;;;;19.63;100.00;101775.41;4982171;28;20053;-66
2023/05/24 08:04:09;;;;;;;10.98;2.72;;;;;;;19.65;100.00;101780.63;4991233;28;20050;-67
2023/05/24 08:06:36;;;;;;;14.63;3.03;;;;;;;20.19;100.00;101770.31;4991908;28;20061;-67
2023/05/24 08:09:04;;;;;;;10.70;2.83;;;;;;;20.33;98.10;101768.56;4991449;28;20096;-67
2023/05/24 08:11:32;;;;;;;17.40;3.80;;;;;;;19.94;100.00;101778.06;4990838;28;20050;-68
2023/05/24 08:13:58;;;;;;;12.40;2.65;;;;;;;20.97;100.00;101763.66;4990569;28;20477;-68
2023/05/24 08:16:26;;;;;;;11.38;2.80;;;;;;;21.39;96.65;101764.44;4991719;28;20120;-66
2023/05/24 08:18:55;;;;;;;10.73;2.25;;;;;;;20.97;93.13;101745.03;4974902;28;20503;-66
2023/05/24 08:21:22;;;;;;;8.65;2.15;;;;;;;20.79;97.03;101763.91;4991722;28;20082;-66
2023/05/24 08:23:50;;;;;;;11.52;2.75;;;;;;;20.65;100.00;101758.63;4974508;28;20057;-66
2023/05/24 08:26:19;;;;;;;11.70;2.25;;;;;;;20.27;100.00;101765.38;4973348;28;20109;-66
2023/05/24 08:28:47;;;;;;;10.13;2.30;;;;;;;20.34;97.61;101755.19;4991196;28;20181;-66
2023/05/24 08:31:15;;;;;;;11.75;2.63;;;;;;;20.39;100.00;101761.06;4974325;28;20089;-66
2023/05/24 08:33:43;;;;;;;8.95;2.20;;;;;;;20.34;100.00;101747.22;4973900;28;20563;-67
2023/05/24 08:36:10;;;;;;;9.48;2.22;;;;;;;20.32;100.00;101743.78;4990221;28;20050;-67
2023/05/24 08:38:37;;;;;;;8.82;2.78;;;;;;;19.64;100.00;101747.91;4992131;28;20504;-67
2023/05/24 08:41:06;;;;;;;7.65;2.00;;;;;;;19.72;100.00;101763.38;4991940;28;20790;-66
2023/05/24 08:43:34;;;;;;;13.45;2.42;;;;;;;19.36;100.00;101769.94;4971422;28;20392;-67
2023/05/24 08:46:02;;;;;;;7.70;1.70;;;;;;;19.08;100.00;101774.16;4989629;28;20084;-67
2023/05/24 08:48:30;;;;;;;9.73;1.50;;;;;;;19.57;100.00;101759.84;4992601;28;20058;-66
2023/05/24 08:50:58;;;;;;;8.73;2.00;;;;;;;19.89;100.00;101757.94;4974779;28;20081;-67
2023/05/24 08:53:26;;;;;;;5.93;1.60;;;;;;;20.25;100.00;101756.63;4991571;28;20053;-67
2023/05/24 08:55:54;;;;;;;6.13;1.42;;;;;;;20.66;100.00;101760.31;4990354;28;20060;-67
2023/05/24 08:58:22;;;;;;;4.32;1.15;;;;;;;20.85;100.00;101771.47;4990196;28;20050;-66
2023/05/24 09:00:48;;;;;;;6.78;1.52;;;;;;;20.70;98.41;101769.81;4991591;28;20081;-67
2023/05/24 09:03:16;;;;;;;7.35;1.60;;;;;;;20.25;100.00;101766.41;4974329;28;20467;-67
2023/05/24 09:05:43;;;;;;;8.07;1.63;;;;;;;20.16;100.00;101754.53;4990529;28;20385;-66
2023/05/24 09:08:16;;;;;;;6.28;1.30;;;;;;;20.33;100.00;101752.63;4989902;28;20473;-66
2023/05/24 09:10:44;;;;;;;5.82;1.55;;;;;;;20.94;100.00;101756.72;4992741;28;20500;-66
2023/05/24 09:13:18;;;;;;;5.47;1.20;;;;;;;21.03;100.00;101760.59;4991120;28;20050;-66
2023/05/24 09:15:45;;;;;;;5.82;1.40;;;;;;;20.73;100.00;101750.97;4990735;28;20054;-66
2023/05/24 09:18:12;;;;;;;5.47;1.42;;;;;;;20.57;100.00;101750.22;4990964;28;20400;-66
2023/05/24 09:20:39;;;;;;;5.15;1.40;;;;;;;20.04;100.00;101757.94;4990809;28;20073;-67
2023/05/24 09:23:07;;;;;;;4.45;1.25;;;;;;;20.01;100.00;101764.31;4991626;28;20141;-67
2023/05/24 09:25:34;;;;;;;5.45;1.17;;;;;;;20.22;100.00;101762.16;4990397;28;20108;-67
2023/05/24 09:28:07;;;;;;;7.28;1.40;;;;;;;20.57;100.00;101775.00;4989765;28;20589;-67
2023/05/24 09:30:35;;;;;;;4.60;1.13;;;;;;;20.24;100.00;101760.25;4992246;28;20042;-67
2023/05/24 09:33:04;;;;;;;4.45;1.10;;;;;;;19.66;100.00;101761.09;4991193;28;20050;-66
2023/05/24 09:35:32;;;;;;;7.05;1.50;;;;;;;19.69;100.00;101764.44;4990015;28;20058;-67
2023/05/24 09:38:05;;;;;;;5.03;1.35;;;;;;;19.59;100.00;101754.44;4989612;28;20707;-66
2023/05/24 09:40:31;;;;;;;;;;;;;;;19.53;100.00;101753.88;4973729;28;20492;-67
2023/05/24 09:43:02;;;;;;;5.32;1.20;;;;;;;19.68;100.00;101753.91;5003449;28;19931;-66
2023/05/24 09:45:37;;;;;;;7.78;1.70;;;;;;;19.62;100.00;101770.19;4989284;28;20060;-67
2023/05/24 09:48:10;;;;;;;5.35;1.25;;;;;;;19.65;100.00;101762.03;4973945;28;20058;-66
2023/05/24 09:50:38;;;;;;;4.88;1.20;;;;;;;19.83;100.00;101758.31;4991949;28;20160;-67
2023/05/24 09:53:07;;;;;;;7.95;1.70;;;;;;;20.06;100.00;101766.69;4970047;28;20047;-66
2023/05/24 09:55:36;;;;;;;4.03;1.20;;;;;;;20.35;100.00;101761.38;4967864;28;20128;-67
2023/05/24 09:58:07;;;;;;;4.43;1.30;;;;;;;20.90;100.00;101771.19;4968812;28;20121;-67
2023/05/24 10:00:39;;;;;;;6.38;1.40;;;;;;;21.03;100.00;101765.91;4968087;28;20133;-67
2023/05/24 10:03:13;;;;;;;3.55;1.13;;;;;;;20.42;100.00;101782.16;4978426;28;20562;-67
2023/05/24 10:05:45;;;;;;;4.85;1.25;;;;;;;20.48;100.00;101775.59;4971911;28;20047;-67
2023/05/24 10:08:15;;;;;;;7.05;1.58;;;;;;;20.33;100.00;101771.25;4990881;28;20073;-67
2023/05/24 10:10:42;;;;;;;5.75;1.20;;;;;;;20.14;100.00;101774.19;4993607;28;20133;-66
2023/05/24 10:13:10;;;;;;;6.18;1.60;;;;;;;20.31;100.00;101766.03;4992839;28;20050;-67
2023/05/24 10:15:37;;;;;;;4.38;1.35;;;;;;;20.36;100.00;101768.41;4992338;28;20061;-67
2023/05/24 10:18:07;;;;;;;6.07;1.50;;;;;;;20.28;100.00;101758.25;4989745;28;20105;-66
2023/05/24 10:20:39;;;;;;;5.70;1.58;;;;;;;21.08;100.00;101754.97;4984562;28;20047;-66
2023/05/24 10:23:09;;;;;;;5.57;1.70;;;;;;;21.05;97.12;101753.34;4993450;28;20053;-66
2023/05/24 10:25:40;;;;;;;6.07;1.50;;;;;;;21.70;92.45;101757.91;4994526;28;20054;-66
2023/05/24 10:28:11;;;;;;;4.32;1.10;;;;;;;22.17;92.36;101760.91;5004975;28;20679;-66
2023/05/24 10:30:52;;;;;;;4.50;1.48;;;;;;;22.24;89.74;101759.50;4978925;28;20077;-66
2023/05/24 10:33:23;;;;;;;4.15;1.17;;;;;;;22.14;86.84;101766.44;4978057;28;20205;-66
2023/05/24 10:35:51;;;;;;;5.38;1.42;;;;;;;21.61;93.20;101770.03;4993198;28;20461;-66
2023/05/24 10:38:25;;;;;;;5.00;1.30;;;;;;;21.73;93.04;101775.50;4978866;28;20063;-67
2023/05/24 10:40:54;;;;;;;6.00;1.58;;;;;;;20.93;93.75;101773.66;4971630;28;20050;-67
2023/05/24 10:43:21;;;;;;;7.65;1.30;;;;;;;21.12;96.66;101761.78;4976351;28;20128;-66
2023/05/24 10:45:49;;;;;;;3.55;1.00;;;;;;;20.80;99.41;101754.94;4992998;28;20051;-66
2023/05/24 10:48:23;;;;;;;8.75;1.80;;;;;;;20.98;100.00;101768.00;4993323;28;20058;-67
2023/05/24 10:50:51;;;;;;;11.88;2.88;;;;;;;19.88;98.22;101758.91;4975331;28;20068;-67
2023/05/24 10:53:26;;;;;;;12.70;2.90;;;;;;;19.92;100.00;101763.06;4980367;28;20065;-67
2023/05/24 10:55:58;;;;;;;8.38;2.60;;;;;;;20.11;100.00;101764.59;4988118;28;20412;-67
2023/05/24 10:58:33;;;;;;;14.20;3.63;;;;;;;19.28;100.00;101764.19;4993718;28;20447;-66
2023/05/24 11:01:02;;;;;;;13.02;3.05;;;;;;;19.14;100.00;101765.88;4996150;28;20133;-67
2023/05/24 11:03:35;;;;;;;11.38;3.30;;;;;;;19.55;100.00;101772.38;4986908;28;20048;-67
2023/05/24 11:06:04;;;;;;;14.48;4.47;;;;;;;19.38;100.00;101773.34;4992084;28;20085;-66
2023/05/24 11:08:34;;;;;;;14.52;3.85;;;;;;;19.48;100.00;101766.56;4971626;28;20047;-67
2023/05/24 11:11:11;;;;;;;12.20;3.45;;;;;;;19.61;100.00;101781.78;4991450;28;20042;-66
2023/05/24 11:13:42;;;;;;;18.13;4.50;;;;;;;19.85;100.00;101777.69;4991749;28;20050;-66
2023/05/24 11:16:33;;;;;;;14.02;3.78;;;;;;;19.47;100.00;101790.53;4994476;28;20531;-67
2023/05/24 11:19:16;;;;;;;16.20;4.80;;;;;;;18.90;100.00;101791.16;4992466;28;20061;-66
2023/05/24 11:21:47;;;;;;;12.60;3.70;;;;;;;18.96;100.00;101799.63;4970854;28;20047;-67
2023/05/24 11:24:17;;;;;;;14.87;4.30;;;;;;;18.96;100.00;101799.63;4969569;28;20393;-67
2023/05/24 11:26:45;;;;;;;15.85;4.38;;;;;;;18.56;100.00;101788.53;4981904;28;20057;-66